Time;durP1;ratioP1;P1;durP2;ratioP2;P2;SDS_P1;SDS_P2;PMS_P1;PMS_P2;Temp;Humidity;BMP_temperature;BMP_pressure;BME280_temperature;BME280_humidity;BME280_pressure;Samples;Min_cycle;Max_cycle;Signal;HPM_P1;HPM_P2
2022/03/28 00:01:25;;;;;;;2.03;1.38;;;;;;;;;;5030409;28;20050;-65
2022/03/28 00:03:53;;;;;;;1.85;1.60;;;;;;;;;;5032349;28;20052;-65
2022/03/28 00:06:21;;;;;;;1.60;1.40;;;15.50;51.70;;;;;;5031270;28;20061;-67
2022/03/28 00:08:49;;;;;;;2.08;1.52;;;;;;;;;;5021762;28;20050;-65
2022/03/28 00:11:16;;;;;;;2.42;1.50;;;15.50;59.20;;;;;;5011965;28;20046;-65
2022/03/28 00:13:43;;;;;;;1.85;1.60;;;;;;;;;;5012448;28;20056;-65
2022/03/28 00:16:09;;;;;;;2.67;1.60;;;15.60;59.30;;;;;;5012377;28;20508;-65
2022/03/28 00:18:36;;;;;;;1.75;1.42;;;;;;;;;;5011256;28;20049;-66
2022/03/28 00:21:03;;;;;;;1.88;1.55;;;15.60;59.10;;;;;;5012294;28;20129;-66
2022/03/28 00:23:32;;;;;;;2.05;1.65;;;15.50;59.30;;;;;;5011794;28;20420;-65
2022/03/28 00:25:58;;;;;;;2.10;1.60;;;15.10;55.20;;;;;;5032000;28;20136;-66
2022/03/28 00:28:26;;;;;;;2.63;1.77;;;15.50;58.90;;;;;;5031995;28;20132;-67
2022/03/28 00:30:53;;;;;;;3.75;1.60;;;;;;;;;;5031518;28;20053;-66
2022/03/28 00:33:19;;;;;;;2.13;1.60;;;15.20;58.90;;;;;;5032017;28;20471;-66
2022/03/28 00:35:46;;;;;;;1.63;1.40;;;;;;;;;;5030560;28;20049;-66
2022/03/28 00:38:14;;;;;;;1.80;1.50;;;;;;;;;;5031873;28;20053;-67
2022/03/28 00:40:42;;;;;;;2.60;1.58;;;15.50;51.80;;;;;;5021638;28;20054;-66
2022/03/28 00:43:09;;;;;;;2.47;1.73;;;15.20;57.90;;;;;;5012246;28;20045;-66
2022/03/28 00:45:37;;;;;;;2.10;1.70;;;14.80;58.60;;;;;;5011990;28;20488;-66
2022/03/28 00:48:05;;;;;;;2.03;1.70;;;15.50;53.00;;;;;;5011844;28;20465;-67
2022/03/28 00:50:32;;;;;;;2.25;1.55;;;15.60;59.00;;;;;;5011722;28;20479;-67
2022/03/28 00:52:59;;;;;;;2.20;1.73;;;15.50;53.10;;;;;;5010786;28;20078;-67
2022/03/28 00:55:26;;;;;;;1.60;1.42;;;15.00;58.70;;;;;;5012240;28;20053;-67
2022/03/28 00:57:54;;;;;;;2.10;1.60;;;15.50;59.30;;;;;;5011899;28;20088;-67
2022/03/28 01:00:21;;;;;;;2.50;2.00;;;15.60;59.10;;;;;;5011690;28;20106;-67
2022/03/28 01:02:48;;;;;;;2.10;1.75;;;15.70;59.10;;;;;;5010231;28;20060;-67
2022/03/28 01:05:15;;;;;;;2.13;1.70;;;;;;;;;;5011846;28;20054;-66
2022/03/28 01:07:43;;;;;;;1.90;1.67;;;15.40;58.80;;;;;;5010829;28;20467;-66
2022/03/28 01:10:10;;;;;;;2.17;1.50;;;14.90;52.00;;;;;;5011476;28;20054;-66
2022/03/28 01:12:37;;;;;;;1.98;1.67;;;15.60;59.30;;;;;;5015109;28;20488;-67
2022/03/28 01:15:06;;;;;;;1.90;1.60;;;15.60;59.20;;;;;;5030448;28;20059;-66
2022/03/28 01:20:18;;;;;;;2.33;1.80;;;16.40;54.00;;;;;;5030009;28;20396;-67
2022/03/28 01:22:46;;;;;;;2.08;1.60;;;15.60;58.90;;;;;;5031499;28;20171;-66
2022/03/28 01:25:12;;;;;;;2.05;1.80;;;15.60;59.10;;;;;;5030411;28;20064;-67
2022/03/28 01:27:40;;;;;;;2.97;1.83;;;15.80;59.20;;;;;;5030319;28;20053;-67
2022/03/28 01:30:07;;;;;;;2.65;1.70;;;15.50;59.10;;;;;;5012979;28;20050;-67
2022/03/28 01:32:37;;;;;;;2.00;1.77;;;;;;;;;;5011546;28;20568;-66
2022/03/28 01:35:05;;;;;;;2.85;2.08;;;;;;;;;;5011422;28;20053;-66
2022/03/28 01:37:31;;;;;;;3.28;1.95;;;15.70;59.00;;;;;;5012928;28;20129;-67
2022/03/28 01:40:01;;;;;;;2.08;1.63;;;15.50;51.60;;;;;;5010304;28;20054;-66
2022/03/28 01:42:28;;;;;;;2.40;1.77;;;15.00;58.50;;;;;;5010432;28;20504;-67
2022/03/28 01:44:55;;;;;;;2.10;1.80;;;15.40;55.50;;;;;;5011173;28;20058;-66
2022/03/28 01:47:21;;;;;;;2.38;1.83;;;15.50;57.60;;;;;;5011320;28;20061;-67
2022/03/28 01:49:48;;;;;;;2.38;1.75;;;;;;;;;;5011330;28;20436;-66
2022/03/28 01:52:15;;;;;;;2.40;1.73;;;15.30;59.00;;;;;;5012814;28;20054;-66
2022/03/28 01:54:42;;;;;;;2.83;1.77;;;15.50;59.00;;;;;;5016123;28;20077;-67
2022/03/28 01:57:13;;;;;;;2.38;1.90;;;15.50;51.60;;;;;;5034672;28;20060;-66
2022/03/28 01:59:39;;;;;;;2.70;1.98;;;15.20;58.70;;;;;;5033516;28;20060;-66
2022/03/28 02:02:06;;;;;;;2.28;1.85;;;15.50;59.10;;;;;;5033275;28;20059;-66
2022/03/28 02:04:33;;;;;;;2.70;1.90;;;;;;;;;;5033222;28;20053;-66
2022/03/28 02:07:00;;;;;;;2.92;2.05;;;15.50;58.90;;;;;;5034893;28;20411;-67
2022/03/28 02:09:27;;;;;;;1.88;1.60;;;15.50;58.80;;;;;;5022952;28;20176;-67
2022/03/28 02:11:53;;;;;;;2.50;1.90;;;15.60;59.20;;;;;;5013234;28;20140;-66
2022/03/28 02:14:21;;;;;;;2.03;1.73;;;15.40;59.10;;;;;;5014286;28;20128;-67
2022/03/28 02:16:48;;;;;;;2.08;1.60;;;15.50;59.20;;;;;;5013302;28;20054;-66
2022/03/28 02:19:15;;;;;;;2.15;1.88;;;;;;;;;;5013386;28;20060;-67
2022/03/28 02:21:42;;;;;;;2.47;1.83;;;15.40;59.10;;;;;;5014527;28;20045;-67
2022/03/28 02:24:09;;;;;;;1.98;1.77;;;15.60;59.20;;;;;;5014598;28;20046;-67
2022/03/28 02:26:36;;;;;;;2.60;2.00;;;15.50;59.20;;;;;;5014076;28;20050;-67
2022/03/28 02:29:02;;;;;;;2.40;1.90;;;15.60;58.90;;;;;;5014639;28;20046;-67
2022/03/28 02:31:30;;;;;;;2.20;1.88;;;15.50;53.80;;;;;;5013844;28;20053;-66
2022/03/28 02:33:57;;;;;;;2.88;1.90;;;;;;;;;;5013162;28;20601;-67
2022/03/28 02:36:24;;;;;;;2.45;1.92;;;15.00;58.40;;;;;;5013167;28;20493;-66
2022/03/28 02:38:51;;;;;;;2.60;1.80;;;15.60;59.10;;;;;;5014024;28;20056;-67
2022/03/28 02:41:18;;;;;;;2.47;2.00;;;;;;;;;;5013481;28;20411;-66
2022/03/28 02:43:45;;;;;;;2.05;1.60;;;15.60;58.90;;;;;;5014083;28;20558;-66
2022/03/28 02:46:12;;;;;;;2.30;1.85;;;;;;;;;;5014170;28;20131;-66
2022/03/28 02:48:40;;;;;;;2.85;2.05;;;15.70;58.90;;;;;;5014075;28;20381;-66
2022/03/28 02:51:07;;;;;;;1.67;1.50;;;14.80;53.30;;;;;;5013763;28;20046;-66
2022/03/28 02:53:33;;;;;;;2.40;1.85;;;15.60;58.80;;;;;;5012825;28;20500;-66
2022/03/28 02:56:00;;;;;;;2.08;1.60;;;15.10;53.00;;;;;;5012496;28;20053;-66
2022/03/28 02:58:27;;;;;;;2.13;1.80;;;15.40;58.60;;;;;;5013353;28;20054;-66
2022/03/28 03:00:54;;;;;;;1.83;1.60;;;15.40;57.70;;;;;;5013659;28;20465;-66
2022/03/28 03:03:20;;;;;;;2.05;1.60;;;15.60;54.50;;;;;;5011826;28;20484;-66
2022/03/28 03:05:49;;;;;;;2.50;1.80;;;15.00;58.40;;;;;;5012835;28;20061;-66
2022/03/28 03:08:16;;;;;;;2.58;1.88;;;;;;;;;;5013716;28;20562;-66
2022/03/28 03:10:43;;;;;;;2.40;1.70;;;15.80;58.80;;;;;;5013537;28;20049;-66
2022/03/28 03:13:10;;;;;;;2.40;1.88;;;15.70;58.50;;;;;;5013403;28;20038;-66
2022/03/28 03:15:38;;;;;;;2.10;1.70;;;15.10;57.60;;;;;;5013279;28;20053;-66
2022/03/28 03:18:05;;;;;;;2.63;2.00;;;15.30;52.40;;;;;;5013360;28;20508;-66
2022/03/28 03:20:32;;;;;;;2.50;1.75;;;15.20;58.40;;;;;;5013265;28;20054;-66
2022/03/28 03:23:00;;;;;;;2.45;1.70;;;15.70;51.20;;;;;;5012226;28;20064;-66
2022/03/28 03:25:27;;;;;;;2.30;1.70;;;;;;;;;;5011800;28;20050;-66
2022/03/28 03:27:54;;;;;;;2.13;1.88;;;15.60;58.60;;;;;;5013282;28;20124;-66
2022/03/28 03:30:20;;;;;;;2.05;1.70;;;15.90;58.80;;;;;;5021064;28;20132;-66
2022/03/28 03:32:47;;;;;;;3.00;2.10;;;15.80;56.20;;;;;;5013155;28;20053;-66
2022/03/28 03:35:14;;;;;;;2.53;1.77;;;15.70;58.50;;;;;;5012839;28;20120;-65
2022/03/28 03:37:41;;;;;;;3.42;2.03;;;15.40;58.30;;;;;;5011944;28;20051;-66
2022/03/28 03:40:12;;;;;;;2.45;1.98;;;15.30;52.40;;;;;;5011765;28;20057;-66
2022/03/28 03:42:38;;;;;;;2.40;1.85;;;15.70;58.50;;;;;;5012976;28;20065;-66
2022/03/28 03:45:06;;;;;;;2.38;1.85;;;15.70;51.10;;;;;;5012711;28;20052;-66
2022/03/28 03:47:33;;;;;;;2.97;1.95;;;15.70;58.40;;;;;;5011452;28;20136;-67
2022/03/28 03:50:00;;;;;;;2.83;1.80;;;15.70;56.10;;;;;;5011401;28;20056;-66
2022/03/28 03:52:26;;;;;;;2.05;1.58;;;15.70;58.70;;;;;;5011737;28;20053;-66
2022/03/28 03:54:53;;;;;;;2.30;1.80;;;15.20;58.10;;;;;;5012881;28;20141;-67
2022/03/28 03:57:21;;;;;;;2.45;1.60;;;15.70;57.10;;;;;;5011585;28;20060;-66
2022/03/28 03:59:48;;;;;;;2.50;1.95;;;15.60;55.60;;;;;;5012532;28;20046;-66
2022/03/28 04:02:15;;;;;;;2.33;1.60;;;15.90;58.40;;;;;;5012003;28;20572;-67
2022/03/28 04:04:41;;;;;;;2.45;1.65;;;15.80;58.40;;;;;;5011222;28;20398;-66
2022/03/28 04:07:09;;;;;;;3.35;2.10;;;15.60;56.30;;;;;;5012785;28;20054;-67
2022/03/28 04:09:36;;;;;;;2.05;1.60;;;;;;;;;;5012044;28;20096;-66
2022/03/28 04:12:04;;;;;;;1.98;1.55;;;15.70;58.60;;;;;;5012237;28;20049;-66
2022/03/28 04:14:32;;;;;;;2.20;1.70;;;15.80;58.20;;;;;;5012015;28;20074;-66
2022/03/28 04:16:59;;;;;;;2.20;1.70;;;15.70;54.60;;;;;;5011891;28;20060;-66
2022/03/28 04:19:26;;;;;;;2.60;1.92;;;15.60;58.50;;;;;;5012123;28;20054;-67
2022/03/28 04:21:52;;;;;;;2.42;1.80;;;15.80;58.30;;;;;;5011900;28;20452;-67
2022/03/28 04:24:22;;;;;;;2.28;1.75;;;;;;;;;;5012318;28;20071;-66
2022/03/28 04:26:48;;;;;;;2.28;1.58;;;15.70;54.10;;;;;;5012338;28;20060;-67
2022/03/28 04:29:15;;;;;;;3.00;1.90;;;;;;;;;;5012581;28;20072;-66
2022/03/28 04:31:43;;;;;;;2.20;1.65;;;15.70;51.00;;;;;;5011686;28;20512;-66
2022/03/28 04:34:11;;;;;;;2.20;1.55;;;;;;;;;;5010422;28;20053;-68
2022/03/28 04:36:38;;;;;;;2.10;1.58;;;15.00;58.10;;;;;;5012419;28;20050;-66
2022/03/28 04:39:05;;;;;;;3.22;2.00;;;;;;;;;;5012093;28;20061;-67
2022/03/28 04:41:33;;;;;;;2.00;1.60;;;;;;;;;;5011946;28;20049;-67
2022/03/28 04:43:59;;;;;;;2.53;1.73;;;15.70;58.20;;;;;;5012172;28;20050;-66
2022/03/28 04:46:26;;;;;;;2.03;1.65;;;15.70;58.50;;;;;;5011706;28;20488;-66
2022/03/28 04:48:54;;;;;;;2.13;1.50;;;15.70;50.90;;;;;;5012474;28;20046;-66
2022/03/28 04:51:21;;;;;;;2.72;1.70;;;;;;;;;;5012081;28;20045;-67
2022/03/28 04:53:49;;;;;;;2.42;1.70;;;;;;;;;;5010437;28;20054;-66
2022/03/28 04:56:16;;;;;;;2.88;1.90;;;;;;;;;;5011955;28;20458;-67
2022/03/28 04:58:42;;;;;;;2.20;1.80;;;15.50;55.20;;;;;;5011900;28;20511;-67
2022/03/28 05:01:09;;;;;;;1.77;1.55;;;;;;;;;;5011698;28;20053;-66
2022/03/28 05:03:36;;;;;;;1.88;1.58;;;;;;;;;;5011873;28;20510;-67
2022/03/28 05:06:05;;;;;;;1.90;1.50;;;15.70;50.80;;;;;;5011618;28;20103;-66
2022/03/28 05:08:32;;;;;;;2.38;1.77;;;;;;;;;;5010946;28;20488;-65
2022/03/28 05:10:59;;;;;;;2.45;1.60;;;15.70;58.50;;;;;;5011696;28;20058;-67
2022/03/28 05:13:27;;;;;;;2.83;1.67;;;;;;;;;;5010688;28;20078;-66
2022/03/28 05:15:54;;;;;;;1.85;1.60;;;;;;;;;;5010328;28;20429;-66
2022/03/28 05:18:20;;;;;;;2.30;1.60;;;15.80;58.10;;;;;;5010750;28;20054;-66
2022/03/28 05:20:47;;;;;;;2.50;1.70;;;15.20;57.80;;;;;;5010200;28;20050;-67
2022/03/28 05:23:15;;;;;;;2.33;1.50;;;15.70;50.80;;;;;;5012742;28;20050;-66
2022/03/28 05:25:43;;;;;;;2.20;1.60;;;;;;;;;;5010414;28;20415;-66
2022/03/28 05:28:10;;;;;;;1.73;1.50;;;;;;;;;;5015107;28;20096;-66
2022/03/28 05:30:37;;;;;;;2.53;1.60;;;15.70;58.40;;;;;;5015399;28;20456;-66
2022/03/28 05:33:04;;;;;;;2.30;1.52;;;;;;;;;;5015513;28;20060;-66
2022/03/28 05:35:31;;;;;;;2.20;1.60;;;15.70;58.30;;;;;;5015374;28;20505;-68
2022/03/28 05:37:58;;;;;;;1.83;1.40;;;15.80;58.40;;;;;;5015264;28;20057;-68
2022/03/28 05:40:26;;;;;;;1.58;1.33;;;15.50;58.10;;;;;;5015029;28;20492;-67
2022/03/28 05:42:54;;;;;;;1.95;1.60;;;;;;;;;;5014138;28;20103;-67
2022/03/28 05:45:20;;;;;;;2.22;1.63;;;15.70;55.70;;;;;;5014154;28;20073;-67
2022/03/28 05:47:47;;;;;;;1.67;1.42;;;;;;;;;;5015247;28;20054;-67
2022/03/28 05:50:15;;;;;;;2.13;1.40;;;;;;;;;;5014771;28;20408;-66
2022/03/28 05:52:41;;;;;;;1.70;1.30;;;15.20;57.90;;;;;;5014964;28;20488;-68
2022/03/28 05:55:09;;;;;;;2.00;1.45;;;15.70;58.00;;;;;;5016381;28;20068;-68
2022/03/28 05:57:37;;;;;;;2.08;1.45;;;15.70;58.20;;;;;;5015275;28;20054;-68
2022/03/28 06:00:05;;;;;;;1.95;1.40;;;15.70;58.20;;;;;;5013773;28;20413;-65
2022/03/28 06:02:32;;;;;;;2.25;1.50;;;15.70;57.90;;;;;;5013711;28;20484;-65
2022/03/28 06:04:59;;;;;;;1.58;1.40;;;;;;;;;;5014765;28;20041;-67
2022/03/28 06:07:26;;;;;;;1.35;1.13;;;15.80;58.00;;;;;;5014902;28;20049;-65
2022/03/28 06:09:52;;;;;;;1.98;1.38;;;15.60;58.10;;;;;;5019176;28;20045;-65
2022/03/28 06:12:19;;;;;;;2.08;1.38;;;;;;;;;;5033380;28;20068;-65
2022/03/28 06:14:47;;;;;;;1.70;1.30;;;15.70;58.20;;;;;;5033450;28;20108;-65
2022/03/28 06:17:20;;;;;;;1.30;1.20;;;15.80;57.90;;;;;;5033426;28;20049;-65
2022/03/28 06:19:47;;;;;;;1.77;1.38;;;15.60;58.10;;;;;;5034409;28;20059;-67
2022/03/28 06:22:14;;;;;;;2.10;1.48;;;15.70;58.10;;;;;;5034120;28;20045;-65
2022/03/28 06:24:41;;;;;;;1.40;1.20;;;15.00;57.70;;;;;;5033165;28;20537;-65
2022/03/28 06:27:08;;;;;;;1.83;1.50;;;15.00;55.80;;;;;;5032326;28;20072;-65
2022/03/28 06:29:34;;;;;;;1.85;1.20;;;15.60;58.10;;;;;;5032681;28;20049;-65
2022/03/28 06:32:02;;;;;;;2.15;1.45;;;15.80;58.20;;;;;;5034008;28;20049;-64
2022/03/28 06:34:30;;;;;;;1.58;1.25;;;15.70;57.90;;;;;;5033607;28;20049;-65
2022/03/28 06:36:57;;;;;;;1.20;1.10;;;15.50;58.10;;;;;;5033950;28;20053;-65
2022/03/28 06:39:24;;;;;;;1.88;1.30;;;;;;;;;;5027048;28;20052;-68
2022/03/28 06:41:51;;;;;;;1.42;1.25;;;15.60;58.10;;;;;;5013995;28;20052;-65
2022/03/28 06:44:18;;;;;;;1.58;1.23;;;15.70;58.20;;;;;;5014394;28;20452;-68
2022/03/28 06:46:44;;;;;;;1.40;1.20;;;15.60;57.60;;;;;;5014070;28;20097;-67
2022/03/28 06:49:13;;;;;;;0.93;0.90;;;15.70;57.80;;;;;;5013821;28;20049;-68
2022/03/28 06:51:40;;;;;;;1.48;1.13;;;15.60;58.20;;;;;;5013710;28;20120;-68
2022/03/28 06:54:08;;;;;;;1.40;1.10;;;15.70;58.10;;;;;;5022389;28;20048;-69
2022/03/28 06:56:36;;;;;;;2.67;1.95;;;15.80;57.80;;;;;;5018458;28;20132;-69
2022/03/28 06:59:03;;;;;;;2.20;1.70;;;15.50;53.80;;;;;;5014085;28;20540;-69
2022/03/28 07:01:29;;;;;;;2.90;1.40;;;14.90;57.40;;;;;;5013469;28;20519;-69
2022/03/28 07:03:56;;;;;;;1.80;1.30;;;16.10;58.10;;;;;;5012243;28;20057;-70
2022/03/28 07:06:24;;;;;;;3.28;1.50;;;15.60;53.00;;;;;;5013618;28;20054;-69
2022/03/28 07:08:52;;;;;;;1.33;1.23;;;15.10;57.60;;;;;;5013924;28;20050;-66
2022/03/28 07:11:19;;;;;;;1.60;1.23;;;15.60;54.90;;;;;;5016289;28;20053;-66
2022/03/28 07:13:45;;;;;;;1.40;1.10;;;15.60;58.20;;;;;;5032237;28;20046;-68
2022/03/28 07:16:12;;;;;;;1.30;1.20;;;15.60;58.00;;;;;;5033316;28;20514;-70
2022/03/28 07:18:41;;;;;;;2.63;1.10;;;15.70;50.90;;;;;;5032349;28;20053;-69
2022/03/28 07:21:07;;;;;;;1.27;1.00;;;15.30;57.70;;;;;;5032243;28;20053;-69
2022/03/28 07:23:36;;;;;;;1.92;1.23;;;15.70;58.20;;;;;;5032248;28;20488;-69
2022/03/28 07:26:03;;;;;;;1.92;1.13;;;;;;;;;;5032109;28;20498;-68
2022/03/28 07:28:30;;;;;;;1.38;1.00;;;15.30;57.90;;;;;;5020863;28;20050;-69
2022/03/28 07:30:57;;;;;;;1.10;1.00;;;15.80;58.10;;;;;;5012977;28;20081;-69
2022/03/28 07:33:24;;;;;;;1.20;1.08;;;15.80;55.40;;;;;;5013354;28;20137;-69
2022/03/28 07:35:50;;;;;;;1.10;1.00;;;15.60;57.70;;;;;;5012160;28;20152;-68
2022/03/28 07:38:18;;;;;;;1.88;1.25;;;;;;;;;;5012325;28;20058;-68
2022/03/28 07:40:46;;;;;;;1.13;1.00;;;15.80;50.50;;;;;;5013011;28;20132;-67
2022/03/28 07:43:13;;;;;;;1.50;1.00;;;;;;;;;;5014630;28;20054;-67
2022/03/28 07:45:40;;;;;;;1.23;1.10;;;15.90;57.70;;;;;;5022341;28;20408;-67
2022/03/28 07:48:07;;;;;;;0.73;0.73;;;15.90;57.70;;;;;;5025667;28;20045;-67
2022/03/28 07:50:35;;;;;;;1.00;0.90;;;16.10;55.30;;;;;;5020465;28;20053;-69
2022/03/28 07:53:01;;;;;;;1.27;0.98;;;16.00;58.10;;;;;;5018800;28;20057;-69
2022/03/28 07:55:28;;;;;;;1.05;0.90;;;16.00;57.90;;;;;;5016058;28;20081;-66
2022/03/28 07:57:59;;;;;;;0.90;0.90;;;16.10;58.00;;;;;;5020020;28;20049;-67
2022/03/28 08:00:25;;;;;;;1.10;1.00;;;15.60;57.70;;;;;;5012231;28;20463;-69
2022/03/28 08:02:52;;;;;;;1.15;1.00;;;16.00;57.70;;;;;;5012299;28;20046;-67
2022/03/28 08:05:19;;;;;;;0.82;0.82;;;16.10;57.60;;;;;;5019369;28;20052;-67
2022/03/28 08:07:46;;;;;;;1.45;1.10;;;16.00;53.00;;;;;;5012335;28;20045;-67
2022/03/28 08:10:13;;;;;;;1.48;1.10;;;16.10;57.60;;;;;;5015816;28;20061;-67
2022/03/28 08:12:42;;;;;;;1.25;0.90;;;;;;;;;;5018476;28;20111;-69
2022/03/28 08:15:10;;;;;;;1.15;0.85;;;16.20;54.40;;;;;;5023272;28;20132;-68
2022/03/28 08:17:37;;;;;;;1.25;1.10;;;15.80;57.70;;;;;;5021382;28;20125;-67
2022/03/28 08:20:06;;;;;;;1.30;0.90;;;16.20;57.80;;;;;;5031203;28;20133;-67
2022/03/28 08:22:33;;;;;;;1.40;1.10;;;15.60;56.80;;;;;;5032233;28;20129;-67
2022/03/28 08:25:00;;;;;;;1.33;1.10;;;16.00;57.70;;;;;;5031135;28;20063;-67
2022/03/28 08:27:27;;;;;;;1.00;0.98;;;15.50;54.40;;;;;;5013999;28;20132;-67
2022/03/28 08:29:53;;;;;;;1.33;1.10;;;15.90;57.20;;;;;;5013431;28;20526;-67
2022/03/28 08:32:21;;;;;;;1.13;0.90;;;16.20;57.70;;;;;;5019623;28;20079;-67
2022/03/28 08:34:50;;;;;;;1.15;0.95;;;;;;;;;;5019372;28;20045;-67
2022/03/28 08:37:17;;;;;;;0.88;0.80;;;16.20;53.70;;;;;;5018701;28;20053;-68
2022/03/28 08:39:44;;;;;;;1.13;1.02;;;16.20;57.40;;;;;;5018272;28;20057;-67
2022/03/28 08:42:11;;;;;;;1.10;0.98;;;16.30;52.80;;;;;;5018702;28;20048;-67
2022/03/28 08:44:38;;;;;;;1.30;1.00;;;17.10;58.00;;;;;;5020310;28;20519;-67
2022/03/28 08:47:05;;;;;;;0.98;0.88;;;16.30;53.20;;;;;;5019898;28;20048;-67
2022/03/28 08:49:35;;;;;;;1.08;0.95;;;16.20;57.50;;;;;;5020024;28;20049;-67
2022/03/28 08:52:02;;;;;;;1.08;0.98;;;16.20;57.40;;;;;;5017819;28;20068;-67
2022/03/28 08:54:29;;;;;;;0.98;0.90;;;16.90;57.40;;;;;;5020424;28;20057;-67
2022/03/28 08:56:56;;;;;;;1.27;0.90;;;15.80;53.70;;;;;;5021724;28;20099;-67
2022/03/28 08:59:22;;;;;;;2.05;0.93;;;16.40;57.50;;;;;;5011752;28;20050;-69
2022/03/28 09:01:50;;;;;;;1.38;1.13;;;;;;;;;;5019703;28;20052;-69
2022/03/28 09:04:17;;;;;;;1.20;1.00;;;15.50;56.60;;;;;;5015802;28;20156;-67
2022/03/28 09:06:45;;;;;;;0.85;0.82;;;16.40;50.10;;;;;;5015239;28;20045;-68
2022/03/28 09:09:13;;;;;;;0.93;0.88;;;16.30;50.00;;;;;;5014380;28;20052;-68
2022/03/28 09:11:39;;;;;;;4.13;1.27;;;16.60;57.30;;;;;;5023782;28;20520;-68
2022/03/28 09:14:07;;;;;;;1.00;0.90;;;15.70;56.60;;;;;;5024876;28;20055;-68
2022/03/28 09:16:34;;;;;;;1.10;1.00;;;16.40;57.20;;;;;;5025667;28;20053;-67
2022/03/28 09:19:07;;;;;;;0.85;0.82;;;16.40;57.00;;;;;;5027875;28;20045;-67
2022/03/28 09:21:34;;;;;;;1.13;0.90;;;16.50;56.00;;;;;;5020276;28;20057;-68
2022/03/28 09:24:04;;;;;;;1.35;0.90;;;16.50;57.00;;;;;;5014533;28;20492;-68
2022/03/28 09:26:30;;;;;;;1.20;1.00;;;16.40;56.90;;;;;;5022850;28;20128;-69
2022/03/28 09:29:00;;;;;;;1.20;0.98;;;16.80;57.50;;;;;;5025356;28;20052;-68
2022/03/28 09:31:28;;;;;;;1.38;1.00;;;16.60;56.90;;;;;;5024913;28;20049;-68
2022/03/28 09:34:10;;;;;;;1.00;0.80;;;16.50;57.10;;;;;;5035640;28;20050;-68
2022/03/28 09:36:39;;;;;;;0.98;0.80;;;16.60;57.20;;;;;;5027210;28;20083;-69
2022/03/28 09:39:09;;;;;;;1.10;0.98;;;16.60;53.00;;;;;;5015886;28;20058;-70
2022/03/28 09:41:35;;;;;;;1.08;0.98;;;16.60;56.80;;;;;;5015243;28;20192;-71
2022/03/28 09:44:02;;;;;;;1.25;0.80;;;17.40;57.60;;;;;;5015389;28;20056;-70
2022/03/28 09:46:30;;;;;;;1.08;0.98;;;16.60;55.10;;;;;;5015192;28;20046;-70
2022/03/28 09:48:57;;;;;;;1.20;1.00;;;16.60;54.10;;;;;;5015368;28;20092;-70
2022/03/28 09:51:26;;;;;;;1.00;0.90;;;16.80;57.10;;;;;;5013956;28;20108;-70
2022/03/28 09:53:53;;;;;;;0.98;0.90;;;;;;;;;;5028817;28;20534;-68
2022/03/28 09:56:21;;;;;;;1.30;1.00;;;16.70;56.80;;;;;;5034978;28;20571;-70
2022/03/28 09:58:49;;;;;;;1.08;0.98;;;16.70;56.70;;;;;;5032143;28;20054;-70
2022/03/28 10:01:19;;;;;;;1.00;0.90;;;16.80;56.90;;;;;;5025001;28;20103;-70
2022/03/28 10:03:47;;;;;;;2.05;0.90;;;15.80;56.60;;;;;;5023777;28;20084;-70
2022/03/28 10:06:14;;;;;;;1.30;0.93;;;16.60;49.80;;;;;;5021952;28;20055;-68
2022/03/28 10:08:41;;;;;;;1.48;1.02;;;17.30;57.40;;;;;;5018239;28;20075;-70
2022/03/28 10:11:08;;;;;;;1.10;1.00;;;16.60;57.00;;;;;;5022848;28;20501;-70
2022/03/28 10:13:36;;;;;;;1.63;1.10;;;16.60;57.20;;;;;;5024969;28;20060;-70
2022/03/28 10:16:03;;;;;;;1.17;1.00;;;16.50;57.10;;;;;;5022357;28;20042;-70
2022/03/28 10:18:30;;;;;;;1.20;1.00;;;16.00;53.50;;;;;;5021261;28;20053;-69
2022/03/28 10:20:58;;;;;;;1.67;1.23;;;16.70;57.30;;;;;;5023766;28;20057;-70
2022/03/28 10:23:29;;;;;;;2.30;1.10;;;16.80;57.20;;;;;;5022583;28;20062;-70
2022/03/28 10:25:56;;;;;;;1.63;1.20;;;16.60;50.20;;;;;;5022921;28;20048;-68
2022/03/28 10:28:23;;;;;;;1.27;1.17;;;16.50;57.40;;;;;;5015434;28;20061;-70
2022/03/28 10:31:06;;;;;;;1.65;1.20;;;16.60;50.10;;;;;;5017200;28;20042;-70
2022/03/28 10:33:33;;;;;;;1.48;1.00;;;16.70;57.10;;;;;;5014380;28;20056;-70
2022/03/28 10:36:00;;;;;;;1.48;1.05;;;16.10;57.10;;;;;;5014320;28;20060;-70
2022/03/28 10:38:27;;;;;;;2.85;1.08;;;16.00;57.10;;;;;;5012722;28;20081;-70
2022/03/28 10:40:56;;;;;;;2.33;1.17;;;16.60;50.10;;;;;;5013055;28;20409;-68
2022/03/28 10:43:25;;;;;;;2.08;1.02;;;16.80;57.40;;;;;;5013280;28;20056;-70
2022/03/28 10:45:54;;;;;;;1.67;1.25;;;16.70;57.30;;;;;;5014250;28;20046;-70
2022/03/28 10:48:34;;;;;;;4.03;1.10;;;16.70;55.30;;;;;;5029387;28;20496;-70
2022/03/28 10:51:04;;;;;;;1.02;0.93;;;16.50;56.90;;;;;;5013693;28;20059;-70
2022/03/28 10:53:37;;;;;;;4.05;1.10;;;17.40;57.60;;;;;;5013300;28;20057;-70
2022/03/28 10:56:05;;;;;;;1.25;1.02;;;16.00;57.00;;;;;;5018649;28;20060;-70
2022/03/28 10:58:32;;;;;;;1.42;1.30;;;16.80;57.10;;;;;;5022785;28;20492;-70
2022/03/28 11:01:33;;;;;;;2.33;1.13;;;16.50;50.00;;;;;;5021038;28;20056;-69
2022/03/28 11:04:09;;;;;;;1.35;1.20;;;16.10;57.10;;;;;;5022287;28;20423;-70
2022/03/28 11:06:48;;;;;;;1.15;1.00;;;16.60;57.10;;;;;;5022896;28;20057;-70
2022/03/28 11:09:15;;;;;;;1.42;1.10;;;;;;;;;;5022932;28;20046;-68
2022/03/28 11:11:56;;;;;;;1.30;1.20;;;16.50;57.00;;;;;;5022754;28;20061;-70
2022/03/28 11:14:41;;;;;;;1.77;1.30;;;17.30;51.80;;;;;;5025055;28;20140;-71
2022/03/28 11:17:16;;;;;;;1.77;1.23;;;16.50;57.30;;;;;;5042094;28;20041;-70
2022/03/28 11:19:53;;;;;;;2.10;1.30;;;16.50;50.00;;;;;;5039680;28;20056;-68
2022/03/28 11:22:20;;;;;;;1.77;1.23;;;16.70;57.40;;;;;;5027713;28;20057;-70
2022/03/28 11:24:49;;;;;;;3.63;1.30;;;15.80;56.90;;;;;;5042540;28;20063;-69
2022/03/28 11:27:16;;;;;;;1.20;1.08;;;16.50;51.30;;;;;;5040152;28;20095;-69
2022/03/28 11:29:45;;;;;;;1.70;1.30;;;16.70;57.00;;;;;;5043566;28;20049;-70
2022/03/28 11:32:13;;;;;;;1.48;1.30;;;16.40;53.00;;;;;;5047593;28;20056;-69
2022/03/28 11:34:41;;;;;;;1.63;1.27;;;16.50;49.90;;;;;;5040975;28;20045;-67
2022/03/28 11:37:08;;;;;;;2.17;1.20;;;;;;;;;;5041540;28;20051;-68
2022/03/28 11:39:56;;;;;;;1.40;1.20;;;17.30;57.10;;;;;;5046261;28;20415;-67
2022/03/28 11:42:24;;;;;;;1.48;1.20;;;16.60;56.90;;;;;;5033321;28;20061;-68
2022/03/28 11:44:50;;;;;;;1.20;1.10;;;16.70;56.90;;;;;;5044609;28;20050;-67
2022/03/28 11:47:18;;;;;;;1.20;1.10;;;17.40;57.40;;;;;;5042833;28;20137;-67
2022/03/28 11:49:54;;;;;;;1.40;1.20;;;16.90;57.30;;;;;;5043031;28;20067;-70
2022/03/28 11:52:21;;;;;;;1.30;1.17;;;16.80;56.50;;;;;;5042147;28;20060;-67
2022/03/28 11:54:47;;;;;;;1.13;1.02;;;16.80;56.90;;;;;;5042845;28;20052;-67
2022/03/28 12:00:12;;;;;;;1.80;1.40;;;16.60;50.40;;;;;;5042123;28;20044;-67
2022/03/28 12:02:47;;;;;;;2.47;1.70;;;16.50;56.50;;;;;;5044222;28;20045;-68
2022/03/28 12:05:24;;;;;;;3.38;1.60;;;16.60;57.00;;;;;;5041311;28;20059;-67
2022/03/28 12:07:51;;;;;;;2.47;1.50;;;16.70;52.00;;;;;;5043537;28;20240;-67
2022/03/28 12:10:17;;;;;;;1.40;1.20;;;16.60;56.70;;;;;;5041311;28;20747;-67
2022/03/28 12:12:44;;;;;;;1.27;1.10;;;16.30;56.90;;;;;;5038440;28;20051;-67
2022/03/28 12:15:11;;;;;;;1.48;1.30;;;16.20;54.20;;;;;;5043616;28;20065;-67
2022/03/28 12:17:38;;;;;;;1.40;1.30;;;16.50;51.80;;;;;;5037870;28;20084;-67
2022/03/28 12:20:06;;;;;;;1.55;1.40;;;16.70;49.70;;;;;;5022243;28;20078;-68
2022/03/28 12:22:44;;;;;;;3.55;1.50;;;16.80;49.70;;;;;;5022578;28;20468;-68
2022/03/28 12:25:26;;;;;;;2.08;1.33;;;16.90;53.00;;;;;;5012532;28;20603;-65
2022/03/28 12:27:54;;;;;;;2.75;1.70;;;17.00;57.00;;;;;;5031971;28;20049;-66
2022/03/28 12:30:24;;;;;;;1.80;1.40;;;16.80;56.50;;;;;;5030100;28;20068;-66
2022/03/28 12:32:52;;;;;;;1.98;1.75;;;17.00;49.90;;;;;;5026551;28;20419;-66
2022/03/28 12:35:21;;;;;;;2.28;1.88;;;17.10;51.60;;;;;;5025141;28;20121;-66
2022/03/28 12:38:01;;;;;;;3.53;2.00;;;16.20;50.50;;;;;;5017953;28;20042;-65
2022/03/28 12:40:29;;;;;;;3.35;1.70;;;17.00;57.40;;;;;;5011457;28;20136;-66
2022/03/28 12:42:56;;;;;;;2.70;1.90;;;17.20;54.70;;;;;;5011877;28;20121;-66
2022/03/28 12:45:25;;;;;;;6.45;2.08;;;17.00;57.50;;;;;;5025971;28;20071;-67
2022/03/28 12:47:56;;;;;;;4.60;3.42;;;17.20;57.40;;;;;;5011046;28;20499;-66
2022/03/28 12:50:26;;;;;;;10.32;3.72;;;17.10;57.30;;;;;;5010750;28;20406;-67
2022/03/28 12:53:21;;;;;;;5.35;4.80;;;17.00;56.70;;;;;;5011102;28;20064;-69
2022/03/28 12:55:49;;;;;;;7.03;3.60;;;17.00;49.90;;;;;;4966215;28;20095;-67
2022/03/28 12:58:16;;;;;;;6.90;3.00;;;17.20;56.90;;;;;;5012100;28;20050;-69
2022/03/28 13:00:43;;;;;;;5.60;3.55;;;16.10;56.50;;;;;;5014228;28;20124;-68
2022/03/28 13:03:10;;;;;;;9.20;4.70;;;17.20;57.00;;;;;;5016744;28;20645;-68
2022/03/28 13:05:37;;;;;;;8.10;5.90;;;17.20;56.90;;;;;;5021472;28;20053;-68
2022/03/28 13:08:05;;;;;;;9.73;6.30;;;16.30;56.10;;;;;;5021587;28;20045;-67
2022/03/28 13:10:34;;;;;;;8.45;6.03;;;16.90;49.40;;;;;;5020048;28;20504;-66
2022/03/28 13:13:02;;;;;;;6.95;5.93;;;16.40;55.90;;;;;;5021958;28;20054;-69